Great Falls, Montana
Current Conditions -  °F | °C
As of 5:53 PM on Monday 22 Dec 2014 (Local Time) from KGTF Reporting Station
Overcast Overcast  
Wind Chill: 27°   Ceiling: 8000
Heat Index: 34°   Visibility: 10mi
Dew Point: 26°   Wind: 9mph
Humidity: 73%   Direction: 320°NW
Pressure: 30.06"   Gusts: NA
Location:  47.51°N, 111.3°W
Report Text: KGTF 230053Z 32008KT 10SM SCT060 BKN080 OVC095 01/M03 A3006 RMK AO2 SLP216 T00111033
Loading
Personal Weather Stations






























Interactive Weather Map New forecast layout! Learn more

10-Day Weather Forecast

Advertisements
Track Severe Weather on mobile